Time;durP1;ratioP1;P1;durP2;ratioP2;P2;SDS_P1;SDS_P2;PMS_P1;PMS_P2;Temp;Humidity;BMP_temperature;BMP_pressure;BME280_temperature;BME280_humidity;BME280_pressure;Samples;Min_cycle;Max_cycle;Signal;HPM_P1;HPM_P2
2023/08/17 00:39:43;;;;;;;0.20;0.20;;;26.10;63.10;;;;;;5028506;28;20064;-71
2023/08/17 00:42:10;;;;;;;1.75;0.20;;;;;;;;;;5020350;28;20120;-71
2023/08/17 00:44:36;;;;;;;0.68;0.32;;;;;;;;;;5012127;28;20089;-72
2023/08/17 00:47:04;;;;;;;1.95;0.30;;;;;;;;;;5011830;28;20029;-72
2023/08/17 00:49:31;;;;;;;0.30;0.22;;;26.10;77.10;;;;;;5011825;28;20049;-72
2023/08/17 00:51:57;;;;;;;0.70;0.40;;;;;;;;;;5011629;28;20026;-71
2023/08/17 00:54:26;;;;;;;0.40;0.40;;;26.30;52.40;;;;;;5012019;28;20453;-71
2023/08/17 00:56:53;;;;;;;0.47;0.20;;;26.30;87.80;;;;;;5011669;28;20026;-71
2023/08/17 00:59:20;;;;;;;0.68;0.30;;;26.60;72.90;;;;;;5011784;28;20404;-71
2023/08/17 01:01:48;;;;;;;0.45;0.20;;;26.30;58.80;;;;;;5011838;28;20030;-71
2023/08/17 01:04:14;;;;;;;0.32;0.25;;;;;;;;;;5011950;28;20408;-71
2023/08/17 01:06:41;;;;;;;0.80;0.20;;;;;;;;;;5011916;28;20042;-71
2023/08/17 01:09:08;;;;;;;1.73;0.40;;;26.30;61.20;;;;;;5011964;28;20452;-71
2023/08/17 01:11:35;;;;;;;0.88;0.40;;;;;;;;;;5012072;28;20025;-72
2023/08/17 01:14:12;;;;;;;0.30;0.30;;;26.30;58.60;;;;;;5011408;28;20034;-71
2023/08/17 01:17:13;;;;;;;0.63;0.30;;;26.20;57.90;;;;;;5011669;28;20045;-72
2023/08/17 01:19:41;;;;;;;0.90;0.30;;;;;;;;;;4994067;28;20511;-72
2023/08/17 01:22:08;;;;;;;1.80;0.20;;;26.50;64.30;;;;;;5011703;28;20038;-71
2023/08/17 01:24:34;;;;;;;0.50;0.20;;;;;;;;;;5011681;28;20115;-71
2023/08/17 01:27:00;;;;;;;0.60;0.30;;;;;;;;;;5011583;28;20381;-71
2023/08/17 01:29:26;;;;;;;0.30;0.30;;;;;;;;;;5011583;28;20034;-71
2023/08/17 01:32:16;;;;;;;0.68;0.40;;;26.20;59.80;;;;;;5011536;28;20045;-72
2023/08/17 01:34:50;;;;;;;0.30;0.28;;;26.10;65.60;;;;;;5011542;28;20042;-71
2023/08/17 01:37:20;;;;;;;0.93;0.22;;;26.20;62.80;;;;;;4994115;28;20034;-71
2023/08/17 01:39:52;;;;;;;0.50;0.30;;;25.80;64.90;;;;;;5011981;28;20456;-72
2023/08/17 01:42:19;;;;;;;0.30;0.30;;;;;;;;;;5021719;28;20049;-71
2023/08/17 01:44:45;;;;;;;0.30;0.20;;;;;;;;;;5031250;28;20160;-71
2023/08/17 01:47:11;;;;;;;0.47;0.30;;;;;;;;;;5031038;28;20037;-71
2023/08/17 01:49:37;;;;;;;0.50;0.30;;;;;;;;;;5032481;28;20056;-71
2023/08/17 01:52:03;;;;;;;0.55;0.20;;;;;;;;;;5034983;28;20464;-71
2023/08/17 01:54:29;;;;;;;0.65;0.28;;;;;;;;;;5034613;28;20137;-72
2023/08/17 01:56:56;;;;;;;0.65;0.20;;;;;;;;;;5034838;28;20439;-71
2023/08/17 01:59:22;;;;;;;0.85;0.40;;;;;;;;;;5034437;28;20069;-71
2023/08/17 02:01:49;;;;;;;0.35;0.20;;;;;;;;;;5034554;28;20037;-72
2023/08/17 02:04:16;;;;;;;0.60;0.30;;;;;;;;;;5034464;28;20037;-71
2023/08/17 02:06:42;;;;;;;0.57;0.30;;;;;;;;;;5035091;28;20029;-71
2023/08/17 02:09:08;;;;;;;0.40;0.30;;;;;;;;;;5017085;28;20049;-71
2023/08/17 02:11:35;;;;;;;0.30;0.20;;;;;;;;;;5016785;28;20037;-71
2023/08/17 02:14:02;;;;;;;0.70;0.30;;;;;;;;;;5016731;28;20049;-72
2023/08/17 02:16:28;;;;;;;1.48;0.47;;;;;;;;;;5016547;28;20069;-71
2023/08/17 02:18:55;;;;;;;0.30;0.30;;;;;;;;;;5016701;28;20523;-71
2023/08/17 02:21:21;;;;;;;0.60;0.30;;;;;;;;;;5016514;28;20047;-72
2023/08/17 02:23:48;;;;;;;0.88;0.40;;;;;;;;;;5034143;28;20411;-71
2023/08/17 02:26:14;;;;;;;0.50;0.30;;;;;;;;;;5005114;28;20084;-72
2023/08/17 02:28:41;;;;;;;0.80;0.30;;;;;;;;;;5011984;28;20080;-72
2023/08/17 02:31:07;;;;;;;0.90;0.40;;;;;;;;;;5016658;28;20408;-71
2023/08/17 02:33:36;;;;;;;0.52;0.50;;;;;;;;;;5016710;28;20392;-71
2023/08/17 02:36:03;;;;;;;0.57;0.35;;;;;;;;;;5017519;28;20411;-71
2023/08/17 02:38:30;;;;;;;0.50;0.32;;;;;;;;;;5016834;28;20054;-72
2023/08/17 02:40:56;;;;;;;0.55;0.40;;;;;;;;;;5016712;28;20056;-72
2023/08/17 02:43:23;;;;;;;0.82;0.47;;;;;;;;;;5016091;28;20053;-72
2023/08/17 02:45:49;;;;;;;0.55;0.30;;;;;;;;;;5016212;28;20042;-72
2023/08/17 02:48:16;;;;;;;0.25;0.25;;;;;;;;;;5016610;28;20056;-72
2023/08/17 02:50:43;;;;;;;0.63;0.20;;;;;;;;;;5016439;28;20554;-72
2023/08/17 02:53:09;;;;;;;0.63;0.30;;;;;;;;;;5016030;28;20048;-71
2023/08/17 02:55:35;;;;;;;0.50;0.20;;;;;;;;;;5016452;28;20054;-71
2023/08/17 02:58:02;;;;;;;0.80;0.40;;;;;;;;;;5016443;28;20107;-71
2023/08/17 03:00:29;;;;;;;1.02;0.35;;;;;;;;;;5015977;28;20037;-71
2023/08/17 03:02:55;;;;;;;0.50;0.20;;;;;;;;;;5015874;28;20042;-71
2023/08/17 03:05:22;;;;;;;0.50;0.30;;;;;;;;;;5016731;28;20124;-72
2023/08/17 03:07:48;;;;;;;0.95;0.30;;;;;;;;;;5015848;28;20046;-72
2023/08/17 03:10:15;;;;;;;0.30;0.30;;;;;;;;;;5015638;28;20072;-71
2023/08/17 03:12:42;;;;;;;0.38;0.28;;;;;;;;;;5015770;28;20072;-71
2023/08/17 03:15:09;;;;;;;1.15;0.60;;;;;;;;;;5015668;28;20049;-72
2023/08/17 03:17:35;;;;;;;1.90;0.30;;;;;;;;;;5015741;28;20038;-71
2023/08/17 03:20:01;;;;;;;0.65;0.30;;;;;;;;;;5015579;28;20041;-71
2023/08/17 03:22:27;;;;;;;0.90;0.40;;;;;;;;;;5015584;28;20096;-71
2023/08/17 03:24:55;;;;;;;0.73;0.40;;;25.60;65.70;;;;;;5033173;28;20208;-71
2023/08/17 03:27:21;;;;;;;0.68;0.38;;;;;;;;;;4999047;28;20057;-72
2023/08/17 03:29:47;;;;;;;0.35;0.20;;;;;;;;;;5015528;28;20061;-71
2023/08/17 03:32:13;;;;;;;0.32;0.22;;;;;;;;;;5015509;28;20045;-72
2023/08/17 03:34:39;;;;;;;0.82;0.30;;;;;;;;;;5012477;28;20054;-71
2023/08/17 03:37:05;;;;;;;0.50;0.22;;;;;;;;;;5014327;28;20046;-71
2023/08/17 03:39:32;;;;;;;0.30;0.30;;;;;;;;;;5015558;28;20041;-71
2023/08/17 03:41:58;;;;;;;0.93;0.32;;;;;;;;;;5032554;28;20076;-71
2023/08/17 03:44:25;;;;;;;0.43;0.30;;;;;;;;;;5015104;28;20033;-71
2023/08/17 03:46:51;;;;;;;0.80;0.68;;;;;;;;;;5015454;28;20096;-71
2023/08/17 03:49:18;;;;;;;0.60;0.50;;;;;;;;;;5015331;28;20052;-71
2023/08/17 03:51:44;;;;;;;1.35;1.17;;;;;;;;;;5015156;28;20044;-72
2023/08/17 03:54:10;;;;;;;1.33;0.95;;;;;;;;;;5014850;28;20060;-71
2023/08/17 03:56:36;;;;;;;2.10;2.00;;;;;;;;;;5014809;28;20041;-71
2023/08/17 03:59:03;;;;;;;2.53;2.42;;;;;;;;;;5014878;28;20492;-71
2023/08/17 04:01:29;;;;;;;4.85;4.55;;;;;;;;;;5015269;28;20049;-72
2023/08/17 04:03:56;;;;;;;7.88;7.25;;;;;;;;;;5032478;28;20091;-72
2023/08/17 04:06:22;;;;;;;7.65;7.15;;;;;;;;;;5032318;28;20385;-71
2023/08/17 04:08:49;;;;;;;10.57;9.73;;;;;;;;;;5032530;28;20037;-71
2023/08/17 04:11:15;;;;;;;12.48;11.48;;;;;;;;;;5032282;28;20657;-72
2023/08/17 04:13:42;;;;;;;12.70;11.60;;;;;;;;;;5031768;28;20041;-71
2023/08/17 04:16:08;;;;;;;13.90;12.82;;;;;;;;;;5032352;28;20037;-72
2023/08/17 04:18:34;;;;;;;15.98;14.68;;;;;;;;;;5032277;28;20049;-72
2023/08/17 04:21:01;;;;;;;19.85;18.25;;;;;;;;;;5032061;28;20045;-72
2023/08/17 04:23:27;;;;;;;19.58;17.95;;;;;;;;;;5032258;28;20033;-72
2023/08/17 04:25:55;;;;;;;24.10;22.00;;;;;;;;;;5032568;28;20116;-72
2023/08/17 04:28:21;;;;;;;24.00;22.00;;;;;;;;;;5032110;28;20492;-72
2023/08/17 04:30:48;;;;;;;25.05;22.83;;;;;;;;;;5032649;28;20040;-72
2023/08/17 04:33:14;;;;;;;24.60;22.42;;;;;;;;;;5024170;28;20083;-72
2023/08/17 04:35:41;;;;;;;25.95;23.55;;;;;;;;;;5031957;28;20045;-71
2023/08/17 04:38:07;;;;;;;25.48;23.17;;;;;;;;;;5032120;28;20033;-71
2023/08/17 04:40:34;;;;;;;26.33;23.83;;;;;;;;;;5032150;28;20045;-72
2023/08/17 04:43:00;;;;;;;26.13;23.83;;;;;;;;;;5031677;28;20117;-72
2023/08/17 04:45:26;;;;;;;26.63;24.23;;;;;;;;;;5013953;28;20076;-72
2023/08/17 04:47:52;;;;;;;26.02;23.63;;;;;;;;;;5031722;28;20395;-72
2023/08/17 04:50:18;;;;;;;25.33;22.83;;;;;;;;;;5031750;28;20115;-72
2023/08/17 04:52:44;;;;;;;23.75;21.48;;;25.20;65.50;;;;;;5031775;28;20040;-72
2023/08/17 04:55:13;;;;;;;21.73;19.63;;;25.20;64.90;;;;;;5031600;28;20049;-72
2023/08/17 04:57:39;;;;;;;23.95;21.63;;;;;;;;;;5031661;28;20053;-72
2023/08/17 05:00:09;;;;;;;23.58;21.27;;;;;;;;;;5032057;28;20046;-72
2023/08/17 05:02:35;;;;;;;23.27;21.08;;;;;;;;;;5031566;28;20029;-72
2023/08/17 05:05:03;;;;;;;19.42;17.52;;;25.30;68.30;;;;;;5031592;28;20045;-72
2023/08/17 05:07:29;;;;;;;20.92;18.92;;;;;;;;;;5031800;28;20056;-72
2023/08/17 05:09:55;;;;;;;20.35;18.45;;;;;;;;;;5031846;28;20119;-72
2023/08/17 05:12:21;;;;;;;18.65;16.92;;;;;;;;;;5014043;28;20488;-72
2023/08/17 05:14:47;;;;;;;19.50;17.60;;;;;;;;;;5031312;28;20063;-72
2023/08/17 05:17:13;;;;;;;17.90;16.15;;;;;;;;;;5031313;28;20108;-72
2023/08/17 05:19:41;;;;;;;17.25;15.55;;;;;;;;;;5031290;28;20502;-71
2023/08/17 05:22:11;;;;;;;14.25;12.95;;;25.10;68.40;;;;;;5031326;28;20108;-73
2023/08/17 05:24:37;;;;;;;15.98;14.38;;;;;;;;;;5032820;28;20033;-72
2023/08/17 05:27:03;;;;;;;14.75;13.27;;;;;;;;;;5035764;28;20041;-72
2023/08/17 05:29:29;;;;;;;15.90;14.30;;;;;;;;;;5035347;28;20061;-74
2023/08/17 05:31:55;;;;;;;13.50;12.20;;;;;;;;;;5035259;28;20074;-73
2023/08/17 05:34:23;;;;;;;12.95;11.25;;;25.10;68.50;;;;;;5035155;28;20049;-72
2023/08/17 05:36:49;;;;;;;12.45;11.35;;;;;;;;;;5035335;28;20030;-72
2023/08/17 05:39:15;;;;;;;12.15;10.95;;;;;;;;;;5035392;28;20191;-72
2023/08/17 05:41:41;;;;;;;11.60;10.43;;;;;;;;;;5029190;28;20428;-73
2023/08/17 05:44:07;;;;;;;11.07;9.98;;;;;;;;;;5015692;28;20175;-73
2023/08/17 05:46:34;;;;;;;10.32;9.27;;;;;;;;;;5015437;28;20038;-72
2023/08/17 05:49:01;;;;;;;9.48;8.52;;;25.00;65.70;;;;;;5015284;28;20042;-73
2023/08/17 05:51:28;;;;;;;10.02;9.02;;;;;;;;;;5015152;28;20034;-73
2023/08/17 05:53:55;;;;;;;10.68;8.20;;;;;;;;;;5014979;28;20476;-72
2023/08/17 05:56:22;;;;;;;9.25;8.27;;;;;;;;;;5015093;28;20133;-72
2023/08/17 05:58:49;;;;;;;7.70;7.03;;;;;;;;;;5015164;28;20049;-72
2023/08/17 06:01:15;;;;;;;8.23;7.15;;;;;;;;;;5014709;28;20631;-73
2023/08/17 06:03:42;;;;;;;7.60;5.95;;;;;;;;;;5015148;28;20057;-72
2023/08/17 06:06:09;;;;;;;6.22;5.63;;;25.10;67.90;;;;;;5014641;28;20076;-72
2023/08/17 06:08:36;;;;;;;9.68;6.00;;;;;;;;;;5014974;28;20384;-73
2023/08/17 06:11:02;;;;;;;5.80;5.20;;;;;;;;;;5014700;28;20038;-73
2023/08/17 06:13:28;;;;;;;5.07;4.68;;;;;;;;;;5015228;28;20073;-73
2023/08/17 06:15:56;;;;;;;6.35;4.65;;;24.90;67.80;;;;;;5014775;28;20378;-73
2023/08/17 06:18:22;;;;;;;7.05;3.95;;;;;;;;;;5014564;28;20053;-73
2023/08/17 06:20:51;;;;;;;4.18;3.78;;;;;;;;;;5014927;28;20038;-73
2023/08/17 06:23:18;;;;;;;3.95;3.55;;;;;;;;;;5014841;28;20054;-73
2023/08/17 06:25:44;;;;;;;4.50;3.67;;;;;;;;;;5014691;28;20092;-73
2023/08/17 06:28:11;;;;;;;3.53;2.80;;;;;;;;;;5014749;28;20431;-73
2023/08/17 06:30:37;;;;;;;3.83;3.50;;;;;;;;;;5014363;28;20132;-72
2023/08/17 06:33:04;;;;;;;2.70;2.50;;;;;;;;;;5014420;28;20038;-72
2023/08/17 06:35:30;;;;;;;2.92;2.28;;;;;;;;;;5013814;28;20500;-71
2023/08/17 06:37:57;;;;;;;2.38;1.92;;;;;;;;;;5014395;28;20492;-73
2023/08/17 06:40:24;;;;;;;2.47;1.77;;;;;;;;;;5014192;28;20041;-73
2023/08/17 06:42:50;;;;;;;2.53;1.75;;;;;;;;;;5029198;28;20166;-73
2023/08/17 06:45:19;;;;;;;2.83;1.80;;;;;;;;;;5013040;28;20033;-72
2023/08/17 06:47:45;;;;;;;2.30;1.33;;;24.90;66.60;;;;;;5029989;28;20076;-74
2023/08/17 06:50:11;;;;;;;1.52;1.10;;;;;;;;;;5033986;28;20033;-73
2023/08/17 06:52:39;;;;;;;1.33;0.70;;;;;;;;;;5033840;28;20045;-72
2023/08/17 06:55:05;;;;;;;1.58;0.85;;;;;;;;;;5033672;28;20043;-73
2023/08/17 06:57:31;;;;;;;2.63;1.10;;;;;;;;;;5033801;28;20068;-73
2023/08/17 06:59:57;;;;;;;2.33;0.93;;;;;;;;;;5033624;28;20053;-72
2023/08/17 07:02:23;;;;;;;1.92;0.98;;;;;;;;;;5034119;28;20056;-72
2023/08/17 07:04:49;;;;;;;1.83;0.80;;;;;;;;;;5033379;28;20117;-71
2023/08/17 07:07:16;;;;;;;1.27;0.70;;;;;;;;;;5033817;28;20435;-71
2023/08/17 07:09:42;;;;;;;2.25;0.90;;;;;;;;;;5033508;28;20037;-71
2023/08/17 07:12:08;;;;;;;1.58;0.90;;;;;;;;;;5033867;28;20033;-73
2023/08/17 07:14:35;;;;;;;3.17;0.73;;;;;;;;;;5033506;28;20124;-72
2023/08/17 07:17:01;;;;;;;3.08;0.90;;;;;;;;;;5033706;28;20043;-72
2023/08/17 07:19:28;;;;;;;1.95;0.80;;;;;;;;;;5033273;28;20080;-72
2023/08/17 07:21:54;;;;;;;2.63;1.00;;;;;;;;;;5033143;28;20542;-72
2023/08/17 07:24:21;;;;;;;0.85;0.63;;;;;;;;;;5033484;28;20045;-72
2023/08/17 07:26:47;;;;;;;2.13;0.60;;;;;;;;;;5033139;28;20030;-72
2023/08/17 07:29:14;;;;;;;2.53;0.80;;;;;;;;;;5033380;28;20124;-72
2023/08/17 07:31:40;;;;;;;1.92;0.90;;;;;;;;;;5033342;28;20059;-72
2023/08/17 07:34:07;;;;;;;2.67;0.70;;;;;;;;;;5033128;28;20096;-73
2023/08/17 07:36:33;;;;;;;1.73;0.98;;;;;;;;;;5033389;28;20117;-72
2023/08/17 07:39:00;;;;;;;2.10;0.88;;;;;;;;;;5033205;28;20090;-72
2023/08/17 07:41:27;;;;;;;1.88;0.80;;;;;;;;;;5032763;28;20053;-72
2023/08/17 07:43:53;;;;;;;7.65;1.52;;;;;;;;;;5032986;28;20353;-73
2023/08/17 07:46:19;;;;;;;7.55;0.93;;;;;;;;;;5032514;28;20041;-73
2023/08/17 07:48:45;;;;;;;2.03;0.85;;;;;;;;;;5032432;28;20041;-72
2023/08/17 07:51:12;;;;;;;1.50;0.80;;;;;;;;;;5032696;28;20041;-73
2023/08/17 07:53:39;;;;;;;3.55;1.00;;;25.20;67.00;;;;;;5032916;28;20053;-73
2023/08/17 07:56:06;;;;;;;1.98;0.85;;;;;;;;;;5032529;28;20092;-72
2023/08/17 07:58:32;;;;;;;2.10;0.50;;;;;;;;;;5032672;28;20049;-73
2023/08/17 08:00:59;;;;;;;5.35;1.00;;;;;;;;;;5032567;28;20041;-73
2023/08/17 08:03:25;;;;;;;2.72;1.02;;;;;;;;;;5032408;28;20120;-72
2023/08/17 08:05:52;;;;;;;3.15;0.90;;;;;;;;;;5032747;28;20109;-72
2023/08/17 08:08:19;;;;;;;2.10;0.73;;;;;;;;;;5032359;28;20041;-73
2023/08/17 08:10:46;;;;;;;2.30;0.82;;;;;;;;;;5032380;28;20046;-73
2023/08/17 08:13:13;;;;;;;1.50;0.70;;;;;;;;;;5032224;28;20038;-72
2023/08/17 08:15:39;;;;;;;2.03;0.77;;;;;;;;;;5032165;28;20403;-74
2023/08/17 08:18:06;;;;;;;1.80;0.50;;;;;;;;;;5032573;28;20034;-74
2023/08/17 08:20:32;;;;;;;1.90;0.77;;;;;;;;;;5034439;28;20068;-85
2023/08/17 08:22:59;;;;;;;4.22;0.50;;;;;;;;;;5038172;28;20029;-80
2023/08/17 08:25:25;;;;;;;2.20;0.60;;;;;;;;;;5032173;28;20092;-74
2023/08/17 08:27:51;;;;;;;2.55;0.73;;;;;;;;;;5032319;28;20061;-73
2023/08/17 08:30:18;;;;;;;1.05;0.50;;;;;;;;;;5032009;28;20614;-73
2023/08/17 08:32:45;;;;;;;2.22;0.60;;;;;;;;;;5032170;28;20108;-73
2023/08/17 08:35:11;;;;;;;1.38;0.52;;;;;;;;;;5032196;28;20514;-73
2023/08/17 08:37:37;;;;;;;1.15;0.47;;;;;;;;;;5031932;28;20104;-72
2023/08/17 08:40:04;;;;;;;1.55;0.95;;;;;;;;;;5031990;28;20033;-72
2023/08/17 08:42:31;;;;;;;1.45;0.65;;;;;;;;;;5019188;28;20050;-72
2023/08/17 08:44:57;;;;;;;1.15;0.60;;;;;;;;;;5012091;28;20037;-74
2023/08/17 08:47:24;;;;;;;1.73;0.40;;;;;;;;;;5012003;28;20042;-74
2023/08/17 08:49:51;;;;;;;0.80;0.40;;;;;;;;;;5012311;28;20409;-74
2023/08/17 08:52:22;;;;;;;1.90;0.70;;;25.40;69.10;;;;;;5012162;28;20532;-74
2023/08/17 08:54:51;;;;;;;1.65;0.80;;;25.40;69.10;;;;;;5011968;28;20372;-72
2023/08/17 08:57:18;;;;;;;3.45;1.02;;;25.50;69.30;;;;;;5012167;28;20036;-72
2023/08/17 08:59:47;;;;;;;1.88;0.88;;;25.50;69.40;;;;;;5011928;28;20030;-72
2023/08/17 09:02:15;;;;;;;1.50;0.70;;;25.50;69.30;;;;;;5011990;28;20048;-73
2023/08/17 09:04:45;;;;;;;1.30;0.60;;;25.50;63.90;;;;;;5012119;28;20068;-73
2023/08/17 09:07:17;;;;;;;1.27;0.50;;;25.50;69.50;;;;;;5012002;28;20104;-72
2023/08/17 09:09:45;;;;;;;5.28;0.75;;;25.60;69.70;;;;;;5012046;28;20030;-72
2023/08/17 09:12:11;;;;;;;1.00;0.60;;;;;;;;;;5012078;28;20038;-72
2023/08/17 09:14:37;;;;;;;1.52;0.80;;;;;;;;;;5011811;28;20663;-72
2023/08/17 09:17:06;;;;;;;3.35;0.73;;;25.60;63.90;;;;;;5011615;28;20508;-72
2023/08/17 09:19:33;;;;;;;3.17;0.80;;;25.70;66.50;;;;;;5011731;28;20042;-72
2023/08/17 09:21:59;;;;;;;1.77;0.95;;;;;;;;;;5011988;28;20034;-72
2023/08/17 09:24:36;;;;;;;0.98;0.77;;;25.80;70.10;;;;;;5011595;28;20109;-71
2023/08/17 09:27:03;;;;;;;1.60;0.93;;;;;;;;;;5011369;28;20213;-71
2023/08/17 09:29:36;;;;;;;2.50;0.80;;;;;;;;;;5011485;28;20042;-71
2023/08/17 09:32:07;;;;;;;3.78;0.90;;;26.00;64.40;;;;;;5011886;28;20113;-71
2023/08/17 09:34:33;;;;;;;2.22;0.68;;;;;;;;;;5011827;28;20093;-71
2023/08/17 09:37:04;;;;;;;3.08;0.88;;;26.00;64.70;;;;;;5011710;28;20034;-71
2023/08/17 09:39:31;;;;;;;3.00;0.88;;;;;;;;;;5011683;28;20060;-71
2023/08/17 09:41:57;;;;;;;2.97;0.80;;;;;;;;;;5019230;28;20057;-71
2023/08/17 09:44:24;;;;;;;1.65;0.47;;;;;;;;;;5031331;28;20389;-71
2023/08/17 09:46:50;;;;;;;3.03;1.05;;;;;;;;;;5031083;28;20076;-72
2023/08/17 09:49:18;;;;;;;3.05;0.95;;;26.10;71.00;;;;;;5030938;28;20044;-71
2023/08/17 09:51:45;;;;;;;2.47;0.80;;;;;;;;;;5030984;28;20113;-71
2023/08/17 09:54:22;;;;;;;4.30;1.10;;;26.10;65.70;;;;;;5031146;28;20046;-71
2023/08/17 09:56:53;;;;;;;2.67;0.95;;;26.10;65.40;;;;;;5031262;28;20085;-73
2023/08/17 09:59:19;;;;;;;;;;;26.10;71.50;;;;;;5031341;28;20033;-77
2023/08/17 10:01:47;;;;;;;2.00;0.80;;;26.20;71.00;;;;;;5031141;28;19912;-71
2023/08/17 10:04:19;;;;;;;1.15;0.65;;;26.20;71.00;;;;;;5030765;28;20480;-74
2023/08/17 10:06:52;;;;;;;1.35;0.70;;;26.30;71.00;;;;;;5030895;28;20025;-72
2023/08/17 10:09:24;;;;;;;3.95;0.88;;;26.30;71.00;;;;;;5031283;28;20121;-73
2023/08/17 10:11:54;;;;;;;2.13;0.88;;;26.30;71.00;;;;;;5033968;28;20554;-74
2023/08/17 10:14:30;;;;;;;2.35;0.80;;;26.40;71.50;;;;;;5034235;28;20041;-73
2023/08/17 10:17:04;;;;;;;2.55;1.05;;;26.40;71.10;;;;;;5034358;28;20035;-74
2023/08/17 10:19:43;;;;;;;2.28;0.90;;;26.40;71.20;;;;;;5034499;28;20434;-72
2023/08/17 10:22:09;;;;;;;1.50;0.80;;;;;;;;;;5034364;28;20021;-75
2023/08/17 10:24:38;;;;;;;4.57;0.75;;;26.40;70.60;;;;;;5034290;28;20125;-71
2023/08/17 10:27:06;;;;;;;2.13;0.82;;;26.40;71.20;;;;;;5034555;28;20030;-72
2023/08/17 10:29:33;;;;;;;2.00;0.65;;;26.40;71.40;;;;;;5034716;28;20041;-74
2023/08/17 10:32:01;;;;;;;3.72;0.70;;;26.20;71.30;;;;;;5033912;28;20467;-76
2023/08/17 10:34:28;;;;;;;0.95;0.73;;;26.40;71.50;;;;;;5034147;28;20061;-75
2023/08/17 10:36:57;;;;;;;5.28;0.90;;;26.50;69.20;;;;;;5034116;28;20476;-73
2023/08/17 10:39:27;;;;;;;1.48;0.50;;;26.40;71.40;;;;;;5034315;28;20088;-72
2023/08/17 10:41:54;;;;;;;;;;;26.50;72.00;;;;;;5026682;28;20510;-73
2023/08/17 10:44:38;;;;;;;2.42;0.60;;;26.50;65.60;;;;;;5014796;28;19905;-73
2023/08/17 10:47:32;;;;;;;1.42;0.90;;;26.50;65.80;;;;;;5014052;28;20042;-74
2023/08/17 10:50:07;;;;;;;2.05;0.90;;;26.50;71.70;;;;;;5013989;28;20034;-74
2023/08/17 10:52:35;;;;;;;4.05;0.95;;;26.50;71.50;;;;;;5014277;28;20026;-73
2023/08/17 10:55:05;;;;;;;1.27;0.70;;;26.50;71.70;;;;;;5013786;28;20038;-73
2023/08/17 10:57:35;;;;;;;2.65;0.70;;;26.50;65.80;;;;;;5013880;28;20034;-73
2023/08/17 11:00:16;;;;;;;2.47;0.80;;;26.60;65.60;;;;;;5013880;28;20030;-72
2023/08/17 11:02:55;;;;;;;1.77;0.90;;;;;;;;;;5013736;28;20049;-73
2023/08/17 11:05:38;;;;;;;2.00;1.10;;;;;;;;;;5012464;28;20165;-72
2023/08/17 11:08:06;;;;;;;2.63;0.90;;;26.60;71.80;;;;;;5013950;28;20040;-73
2023/08/17 11:10:33;;;;;;;1.60;1.05;;;;;;;;;;5013676;28;20046;-72
2023/08/17 11:12:59;;;;;;;2.35;0.88;;;26.60;70.90;;;;;;5013662;28;20042;-73
2023/08/17 11:15:26;;;;;;;2.65;1.20;;;;;;;;;;5013505;28;20515;-73
2023/08/17 11:17:53;;;;;;;3.17;0.98;;;;;;;;;;5013492;28;20033;-72
2023/08/17 11:20:19;;;;;;;4.20;0.90;;;;;;;;;;5013573;28;20042;-73
2023/08/17 11:22:47;;;;;;;1.65;0.90;;;26.60;71.70;;;;;;5012552;28;20037;-73
2023/08/17 11:25:13;;;;;;;0.93;0.70;;;;;;;;;;5005123;28;20033;-73
2023/08/17 11:27:39;;;;;;;2.25;1.08;;;;;;;;;;5013334;28;20045;-74
2023/08/17 11:30:06;;;;;;;2.72;1.20;;;;;;;;;;5013268;28;20046;-73
2023/08/17 11:32:32;;;;;;;1.25;0.88;;;;;;;;;;5013343;28;20378;-73
2023/08/17 11:34:59;;;;;;;2.00;1.08;;;;;;;;;;5013020;28;20052;-74
2023/08/17 11:37:25;;;;;;;2.80;1.30;;;;;;;;;;5013322;28;20109;-73
2023/08/17 11:39:51;;;;;;;3.03;1.10;;;;;;;;;;5013689;28;20583;-73
2023/08/17 11:42:18;;;;;;;1.50;1.15;;;;;;;;;;5023687;28;20077;-73
2023/08/17 11:44:44;;;;;;;3.33;1.23;;;;;;;;;;5032990;28;20044;-73
2023/08/17 11:47:11;;;;;;;1.63;1.38;;;26.70;68.90;;;;;;5032900;28;20484;-73
2023/08/17 11:49:38;;;;;;;2.90;1.13;;;;;;;;;;5032808;28;20105;-74
2023/08/17 11:52:05;;;;;;;2.78;1.30;;;;;;;;;;5032865;28;20052;-73
2023/08/17 11:54:33;;;;;;;2.13;1.63;;;26.70;71.90;;;;;;5032586;28;20049;-73
2023/08/17 11:56:59;;;;;;;2.17;1.05;;;;;;;;;;5032552;28;20029;-73
2023/08/17 11:59:27;;;;;;;2.00;1.20;;;;;;;;;;5032784;28;20064;-74
2023/08/17 12:01:53;;;;;;;2.15;1.30;;;;;;;;;;5032470;28;20092;-73
2023/08/17 12:04:22;;;;;;;1.60;1.02;;;26.80;71.60;;;;;;5032539;28;20041;-79
2023/08/17 12:06:48;;;;;;;1.85;1.08;;;;;;;;;;5032353;28;20045;-73
2023/08/17 12:09:15;;;;;;;2.08;0.98;;;;;;;;;;5032581;28;20476;-74
2023/08/17 12:11:41;;;;;;;2.67;1.20;;;;;;;;;;5032442;28;20033;-74
2023/08/17 12:14:11;;;;;;;2.08;1.30;;;26.80;65.60;;;;;;5032313;28;20057;-73
2023/08/17 12:16:48;;;;;;;1.15;1.02;;;26.80;65.60;;;;;;5032314;28;20037;-73
2023/08/17 12:19:15;;;;;;;3.08;1.25;;;;;;;;;;5032136;28;20373;-73
2023/08/17 12:21:42;;;;;;;4.03;1.83;;;26.80;72.40;;;;;;5031977;28;20080;-71
2023/08/17 12:24:14;;;;;;;2.35;1.30;;;26.90;72.60;;;;;;5032037;28;20131;-73
2023/08/17 12:26:46;;;;;;;3.33;1.20;;;26.90;67.10;;;;;;5032115;28;20041;-71
2023/08/17 12:29:13;;;;;;;2.35;1.35;;;;;;;;;;5024030;28;20049;-71
2023/08/17 12:31:40;;;;;;;2.35;1.05;;;;;;;;;;5031992;28;20467;-71
2023/08/17 12:34:06;;;;;;;1.35;1.13;;;;;;;;;;5031738;28;20124;-72
2023/08/17 12:36:33;;;;;;;1.92;1.00;;;;;;;;;;5031808;28;20042;-72
2023/08/17 12:38:59;;;;;;;1.92;0.80;;;;;;;;;;5032136;28;20058;-72
2023/08/17 12:41:25;;;;;;;2.63;1.05;;;;;;;;;;5028022;28;20057;-71
2023/08/17 12:43:58;;;;;;;3.92;1.13;;;;;;;;;;5012431;28;20349;-75
2023/08/17 12:46:25;;;;;;;1.60;1.17;;;;;;;;;;5012405;28;20041;-75
2023/08/17 12:48:52;;;;;;;2.17;0.90;;;;;;;;;;5012324;28;20038;-74
2023/08/17 12:51:18;;;;;;;3.72;0.90;;;;;;;;;;5011978;28;20536;-74
2023/08/17 12:53:44;;;;;;;1.67;1.17;;;;;;;;;;5012164;28;20034;-74
2023/08/17 12:56:10;;;;;;;1.63;1.00;;;;;;;;;;5011774;28;20058;-75
2023/08/17 12:58:37;;;;;;;3.08;1.10;;;;;;;;;;5012045;28;20449;-76
2023/08/17 13:01:03;;;;;;;2.40;1.00;;;;;;;;;;5011815;28;20042;-74
2023/08/17 13:03:30;;;;;;;2.83;0.80;;;;;;;;;;5011913;28;20030;-75
2023/08/17 13:05:56;;;;;;;2.35;0.90;;;;;;;;;;5011867;28;20038;-73
2023/08/17 13:08:22;;;;;;;1.88;1.00;;;;;;;;;;5011676;28;20052;-72
2023/08/17 13:10:48;;;;;;;1.60;1.00;;;;;;;;;;5011737;28;20113;-72
2023/08/17 13:13:14;;;;;;;3.97;1.25;;;;;;;;;;5011975;28;20126;-71
2023/08/17 13:15:41;;;;;;;2.38;1.02;;;;;;;;;;5011966;28;20065;-72
2023/08/17 13:18:08;;;;;;;2.33;0.98;;;;;;;;;;5012006;28;20044;-71
2023/08/17 13:20:35;;;;;;;1.23;1.13;;;;;;;;;;5011765;28;20045;-72
2023/08/17 13:23:02;;;;;;;2.28;0.93;;;;;;;;;;5011583;28;20125;-72
2023/08/17 13:25:28;;;;;;;1.17;0.73;;;;;;;;;;5011693;28;20042;-71
2023/08/17 13:27:55;;;;;;;2.55;0.88;;;;;;;;;;5011583;28;20113;-71
2023/08/17 13:30:21;;;;;;;1.88;0.80;;;;;;;;;;5011708;28;20117;-72
2023/08/17 13:32:47;;;;;;;1.98;0.88;;;;;;;;;;5011777;28;20110;-71
2023/08/17 13:35:14;;;;;;;1.30;0.90;;;;;;;;;;5011647;28;20042;-72
2023/08/17 13:37:41;;;;;;;1.45;0.82;;;;;;;;;;5011629;28;20040;-71
2023/08/17 13:40:07;;;;;;;2.83;1.00;;;27.00;69.80;;;;;;5011708;28;20065;-71
2023/08/17 13:42:34;;;;;;;2.00;1.20;;;26.90;71.30;;;;;;5017399;28;20114;-71
2023/08/17 13:45:00;;;;;;;3.90;1.15;;;;;;;;;;5031280;28;20610;-72
2023/08/17 13:47:26;;;;;;;3.75;1.25;;;;;;;;;;5035356;28;20069;-72
2023/08/17 13:49:55;;;;;;;1.50;0.88;;;;;;;;;;5035189;28;20116;-71
2023/08/17 13:52:21;;;;;;;2.35;0.90;;;;;;;;;;5017442;28;20236;-73
2023/08/17 13:54:48;;;;;;;3.33;1.20;;;26.90;69.50;;;;;;5034786;28;20084;-72
2023/08/17 13:57:16;;;;;;;2.88;1.08;;;26.80;66.00;;;;;;5035051;28;20026;-75
2023/08/17 13:59:42;;;;;;;2.92;0.80;;;;;;;;;;5017113;28;20048;-73
2023/08/17 14:02:08;;;;;;;1.67;0.88;;;26.80;69.50;;;;;;5034816;28;20121;-74
2023/08/17 14:04:34;;;;;;;1.45;1.20;;;;;;;;;;5034697;28;20129;-73
2023/08/17 14:07:01;;;;;;;2.30;1.30;;;;;;;;;;5035047;28;20033;-73
2023/08/17 14:09:27;;;;;;;2.80;1.20;;;;;;;;;;5034757;28;20368;-73
2023/08/17 14:11:54;;;;;;;2.08;0.98;;;;;;;;;;5034412;28;20582;-73
2023/08/17 14:14:20;;;;;;;3.28;1.42;;;;;;;;;;5034292;28;20045;-73
2023/08/17 14:16:47;;;;;;;2.00;0.90;;;;;;;;;;5034660;28;20387;-73
2023/08/17 14:19:13;;;;;;;2.55;1.20;;;;;;;;;;5034515;28;20124;-74
2023/08/17 14:21:39;;;;;;;2.22;1.15;;;;;;;;;;5034568;28;20519;-73
2023/08/17 14:24:07;;;;;;;2.08;1.50;;;;;;;;;;5034176;28;20468;-73
2023/08/17 14:26:34;;;;;;;1.88;1.20;;;;;;;;;;5034814;28;20136;-73
2023/08/17 14:29:00;;;;;;;2.38;1.30;;;;;;;;;;5034362;28;20519;-73
2023/08/17 14:31:27;;;;;;;1.67;0.93;;;;;;;;;;5016818;28;20080;-73
2023/08/17 14:33:54;;;;;;;2.28;1.15;;;26.80;71.70;;;;;;5034464;28;20053;-73
2023/08/17 14:36:21;;;;;;;2.85;1.30;;;;;;;;;;5034018;28;20038;-73
2023/08/17 14:38:47;;;;;;;1.77;1.10;;;;;;;;;;5034124;28;20495;-73
2023/08/17 14:41:14;;;;;;;2.05;1.25;;;;;;;;;;5025751;28;20043;-73
2023/08/17 14:43:40;;;;;;;2.05;1.42;;;;;;;;;;5034187;28;20396;-72
2023/08/17 14:46:06;;;;;;;4.25;1.63;;;;;;;;;;5034109;28;20052;-72
2023/08/17 14:48:32;;;;;;;1.85;1.30;;;;;;;;;;5033735;28;20040;-71
2023/08/17 14:50:58;;;;;;;3.08;1.40;;;;;;;;;;5033862;28;20120;-71